sensor_id;sensor_type;location;lat;lon;timestamp;pressure;altitude;pressure_sealevel;temperature;humidity
30819;BME280;17546;42.674;23.284;2023-05-20T00:00:26;95048.44;;;21.27;44.20
30819;BME280;17546;42.674;23.284;2023-05-20T00:02:51;95046.16;;;21.10;44.56
30819;BME280;17546;42.674;23.284;2023-05-20T00:05:16;95026.97;;;21.01;44.41
30819;BME280;17546;42.674;23.284;2023-05-20T00:07:42;95042.22;;;21.05;44.57
30819;BME280;17546;42.674;23.284;2023-05-20T00:10:07;95048.41;;;21.04;44.74
30819;BME280;17546;42.674;23.284;2023-05-20T00:12:33;95054.78;;;20.97;44.97
30819;BME280;17546;42.674;23.284;2023-05-20T00:15:01;95029.19;;;20.79;45.12
30819;BME280;17546;42.674;23.284;2023-05-20T00:17:26;95027.72;;;20.94;44.67
30819;BME280;17546;42.674;23.284;2023-05-20T00:19:52;95041.25;;;21.03;44.72
30819;BME280;17546;42.674;23.284;2023-05-20T00:22:18;95037.13;;;21.04;44.51
30819;BME280;17546;42.674;23.284;2023-05-20T00:24:43;95042.00;;;20.96;44.97
30819;BME280;17546;42.674;23.284;2023-05-20T00:27:09;95014.94;;;20.85;44.84
30819;BME280;17546;42.674;23.284;2023-05-20T00:29:34;95035.63;;;20.95;44.88
30819;BME280;17546;42.674;23.284;2023-05-20T00:32:00;95039.72;;;20.94;45.13
30819;BME280;17546;42.674;23.284;2023-05-20T00:34:25;95026.19;;;20.85;44.81
30819;BME280;17546;42.674;23.284;2023-05-20T00:36:51;95005.50;;;20.67;45.11
30819;BME280;17546;42.674;23.284;2023-05-20T00:39:16;95018.63;;;20.72;45.41
30819;BME280;17546;42.674;23.284;2023-05-20T00:41:41;95023.56;;;20.79;45.37
30819;BME280;17546;42.674;23.284;2023-05-20T00:44:07;95019.81;;;20.84;45.00
30819;BME280;17546;42.674;23.284;2023-05-20T00:46:32;95010.00;;;20.70;45.17
30819;BME280;17546;42.674;23.284;2023-05-20T00:48:59;95018.88;;;20.82;45.08
30819;BME280;17546;42.674;23.284;2023-05-20T00:51:24;95017.19;;;20.87;45.09
30819;BME280;17546;42.674;23.284;2023-05-20T00:53:50;95007.44;;;20.88;44.92
30819;BME280;17546;42.674;23.284;2023-05-20T00:56:16;94995.97;;;20.85;44.82
30819;BME280;17546;42.674;23.284;2023-05-20T00:58:43;94988.25;;;20.78;44.81
30819;BME280;17546;42.674;23.284;2023-05-20T01:01:08;95021.72;;;20.97;44.83
30819;BME280;17546;42.674;23.284;2023-05-20T01:03:34;95018.16;;;20.97;44.67
30819;BME280;17546;42.674;23.284;2023-05-20T01:05:59;94987.00;;;20.95;44.31
30819;BME280;17546;42.674;23.284;2023-05-20T01:08:25;95008.59;;;21.00;44.62
30819;BME280;17546;42.674;23.284;2023-05-20T01:10:59;95019.09;;;20.99;44.47
30819;BME280;17546;42.674;23.284;2023-05-20T01:13:32;94996.94;;;20.88;44.71
30819;BME280;17546;42.674;23.284;2023-05-20T01:16:00;95004.81;;;20.90;44.36
30819;BME280;17546;42.674;23.284;2023-05-20T01:18:29;95006.31;;;20.91;44.36
30819;BME280;17546;42.674;23.284;2023-05-20T01:20:57;95013.44;;;20.92;44.42
30819;BME280;17546;42.674;23.284;2023-05-20T01:23:46;95024.00;;;20.99;44.38
30819;BME280;17546;42.674;23.284;2023-05-20T01:26:12;95020.97;;;20.97;44.47
30819;BME280;17546;42.674;23.284;2023-05-20T01:28:38;95016.25;;;20.92;44.55
30819;BME280;17546;42.674;23.284;2023-05-20T01:31:06;95000.81;;;20.70;44.52
30819;BME280;17546;42.674;23.284;2023-05-20T01:33:35;95014.53;;;20.81;44.61
30819;BME280;17546;42.674;23.284;2023-05-20T01:36:00;95012.31;;;20.79;44.89
30819;BME280;17546;42.674;23.284;2023-05-20T01:38:26;94993.50;;;20.67;44.72
30819;BME280;17546;42.674;23.284;2023-05-20T01:40:53;95008.16;;;20.80;44.67
30819;BME280;17546;42.674;23.284;2023-05-20T01:43:20;95012.44;;;20.66;44.98
30819;BME280;17546;42.674;23.284;2023-05-20T01:45:46;95012.25;;;20.64;45.20
30819;BME280;17546;42.674;23.284;2023-05-20T01:48:12;95006.63;;;20.64;45.04
30819;BME280;17546;42.674;23.284;2023-05-20T01:50:37;95003.75;;;20.56;45.09
30819;BME280;17546;42.674;23.284;2023-05-20T01:53:03;95011.88;;;20.68;45.05
30819;BME280;17546;42.674;23.284;2023-05-20T01:55:28;94997.91;;;20.54;45.32
30819;BME280;17546;42.674;23.284;2023-05-20T01:57:54;94982.91;;;20.44;45.20
30819;BME280;17546;42.674;23.284;2023-05-20T02:00:19;94992.66;;;20.51;45.25
30819;BME280;17546;42.674;23.284;2023-05-20T02:02:45;94991.91;;;20.50;45.33
30819;BME280;17546;42.674;23.284;2023-05-20T02:05:10;95001.75;;;20.64;45.32
30819;BME280;17546;42.674;23.284;2023-05-20T02:07:36;94971.66;;;20.52;45.15
30819;BME280;17546;42.674;23.284;2023-05-20T02:10:01;94990.28;;;20.62;45.07
30819;BME280;17546;42.674;23.284;2023-05-20T02:12:26;95005.50;;;20.59;45.15
30819;BME280;17546;42.674;23.284;2023-05-20T02:14:52;94993.41;;;20.51;45.00
30819;BME280;17546;42.674;23.284;2023-05-20T02:17:17;94997.19;;;20.54;44.81
30819;BME280;17546;42.674;23.284;2023-05-20T02:19:44;94996.59;;;20.48;45.24
30819;BME280;17546;42.674;23.284;2023-05-20T02:22:09;95006.94;;;20.53;45.33
30819;BME280;17546;42.674;23.284;2023-05-20T02:24:35;95004.69;;;20.51;45.38
30819;BME280;17546;42.674;23.284;2023-05-20T02:27:00;94988.88;;;20.40;45.19
30819;BME280;17546;42.674;23.284;2023-05-20T02:29:27;94986.34;;;20.58;45.04
30819;BME280;17546;42.674;23.284;2023-05-20T02:31:52;94985.91;;;20.54;45.07
30819;BME280;17546;42.674;23.284;2023-05-20T02:34:19;94977.22;;;20.29;45.21
30819;BME280;17546;42.674;23.284;2023-05-20T02:36:45;94995.97;;;20.34;45.50
30819;BME280;17546;42.674;23.284;2023-05-20T02:39:10;94975.47;;;20.18;45.45
30819;BME280;17546;42.674;23.284;2023-05-20T02:41:36;94985.28;;;20.32;45.07
30819;BME280;17546;42.674;23.284;2023-05-20T02:44:02;94987.25;;;20.16;45.42
30819;BME280;17546;42.674;23.284;2023-05-20T02:46:27;94991.81;;;20.27;45.38
30819;BME280;17546;42.674;23.284;2023-05-20T02:48:52;94990.69;;;20.22;45.47
30819;BME280;17546;42.674;23.284;2023-05-20T02:51:18;94979.88;;;19.98;45.86
30819;BME280;17546;42.674;23.284;2023-05-20T02:53:43;95002.66;;;20.23;45.62
30819;BME280;17546;42.674;23.284;2023-05-20T02:56:08;94974.69;;;20.10;45.39
30819;BME280;17546;42.674;23.284;2023-05-20T02:58:35;94988.81;;;20.25;45.09
30819;BME280;17546;42.674;23.284;2023-05-20T03:01:01;94974.88;;;20.12;45.17
30819;BME280;17546;42.674;23.284;2023-05-20T03:03:26;94997.97;;;20.18;45.39
30819;BME280;17546;42.674;23.284;2023-05-20T03:05:52;95003.75;;;20.12;45.50
30819;BME280;17546;42.674;23.284;2023-05-20T03:08:20;94976.69;;;20.01;45.56
30819;BME280;17546;42.674;23.284;2023-05-20T03:10:45;95004.88;;;20.17;45.49
30819;BME280;17546;42.674;23.284;2023-05-20T03:13:11;94985.72;;;20.08;45.23
30819;BME280;17546;42.674;23.284;2023-05-20T03:15:37;94998.09;;;20.05;45.54
30819;BME280;17546;42.674;23.284;2023-05-20T03:18:03;94995.09;;;20.10;45.49
30819;BME280;17546;42.674;23.284;2023-05-20T03:20:29;95009.22;;;20.18;45.75
30819;BME280;17546;42.674;23.284;2023-05-20T03:22:56;95014.03;;;20.10;45.70
30819;BME280;17546;42.674;23.284;2023-05-20T03:25:23;95015.78;;;20.20;45.53
30819;BME280;17546;42.674;23.284;2023-05-20T03:27:49;95002.19;;;20.03;45.91
30819;BME280;17546;42.674;23.284;2023-05-20T03:30:14;95021.00;;;20.09;45.98
30819;BME280;17546;42.674;23.284;2023-05-20T03:32:40;95024.78;;;20.19;45.57
30819;BME280;17546;42.674;23.284;2023-05-20T03:35:06;95017.66;;;20.18;45.75
30819;BME280;17546;42.674;23.284;2023-05-20T03:37:32;95028.16;;;20.17;45.58
30819;BME280;17546;42.674;23.284;2023-05-20T03:39:58;95021.63;;;20.22;45.59
30819;BME280;17546;42.674;23.284;2023-05-20T03:42:23;95021.56;;;20.15;45.75
30819;BME280;17546;42.674;23.284;2023-05-20T03:44:48;95025.47;;;20.04;45.99
30819;BME280;17546;42.674;23.284;2023-05-20T03:47:14;95015.16;;;20.07;45.71
30819;BME280;17546;42.674;23.284;2023-05-20T03:49:39;95030.78;;;20.15;45.98
30819;BME280;17546;42.674;23.284;2023-05-20T03:52:06;95015.31;;;20.01;46.17
30819;BME280;17546;42.674;23.284;2023-05-20T03:54:31;95041.25;;;20.15;46.13
30819;BME280;17546;42.674;23.284;2023-05-20T03:56:57;95015.84;;;19.99;46.02
30819;BME280;17546;42.674;23.284;2023-05-20T03:59:22;95032.78;;;20.07;46.41
30819;BME280;17546;42.674;23.284;2023-05-20T04:01:48;95041.63;;;20.11;46.14
30819;BME280;17546;42.674;23.284;2023-05-20T04:04:13;95019.88;;;20.12;46.09
30819;BME280;17546;42.674;23.284;2023-05-20T04:06:38;95050.34;;;20.29;46.08
30819;BME280;17546;42.674;23.284;2023-05-20T04:09:05;95035.59;;;20.07;46.30
30819;BME280;17546;42.674;23.284;2023-05-20T04:11:30;95044.72;;;20.29;45.94
30819;BME280;17546;42.674;23.284;2023-05-20T04:13:56;95030.81;;;20.23;46.26
30819;BME280;17546;42.674;23.284;2023-05-20T04:16:22;95046.47;;;20.39;46.17
30819;BME280;17546;42.674;23.284;2023-05-20T04:18:48;95056.63;;;20.50;46.13
30819;BME280;17546;42.674;23.284;2023-05-20T04:21:14;95025.44;;;20.40;45.91
30819;BME280;17546;42.674;23.284;2023-05-20T04:23:40;95035.38;;;20.41;46.09
30819;BME280;17546;42.674;23.284;2023-05-20T04:26:05;95065.34;;;20.60;45.77
30819;BME280;17546;42.674;23.284;2023-05-20T04:28:31;95052.75;;;20.61;45.80
30819;BME280;17546;42.674;23.284;2023-05-20T04:31:00;95050.94;;;20.71;45.92
30819;BME280;17546;42.674;23.284;2023-05-20T04:33:28;95049.06;;;20.74;46.05
30819;BME280;17546;42.674;23.284;2023-05-20T04:35:54;95050.56;;;20.75;45.96
30819;BME280;17546;42.674;23.284;2023-05-20T04:38:23;95031.75;;;20.62;45.77
30819;BME280;17546;42.674;23.284;2023-05-20T04:40:57;95037.78;;;20.66;45.61
30819;BME280;17546;42.674;23.284;2023-05-20T04:43:26;95047.19;;;20.76;45.63
30819;BME280;17546;42.674;23.284;2023-05-20T04:45:57;95064.13;;;20.92;45.44
30819;BME280;17546;42.674;23.284;2023-05-20T04:48:22;95062.09;;;21.00;45.41
30819;BME280;17546;42.674;23.284;2023-05-20T04:50:48;95068.88;;;21.12;45.07
30819;BME280;17546;42.674;23.284;2023-05-20T04:53:14;95063.44;;;21.14;45.29
30819;BME280;17546;42.674;23.284;2023-05-20T04:55:40;95040.53;;;21.10;45.21
30819;BME280;17546;42.674;23.284;2023-05-20T04:58:07;95067.44;;;21.34;44.76
30819;BME280;17546;42.674;23.284;2023-05-20T05:00:39;95041.66;;;21.22;44.83
30819;BME280;17546;42.674;23.284;2023-05-20T05:03:05;95025.69;;;21.17;44.63
30819;BME280;17546;42.674;23.284;2023-05-20T05:05:31;95063.09;;;21.25;44.89
30819;BME280;17546;42.674;23.284;2023-05-20T05:07:56;95044.50;;;21.30;44.66
30819;BME280;17546;42.674;23.284;2023-05-20T05:10:22;95050.31;;;21.40;44.38
30819;BME280;17546;42.674;23.284;2023-05-20T05:12:49;95059.56;;;21.48;44.56
30819;BME280;17546;42.674;23.284;2023-05-20T05:15:15;95060.66;;;21.37;44.74
30819;BME280;17546;42.674;23.284;2023-05-20T05:17:41;95060.81;;;21.32;44.58
30819;BME280;17546;42.674;23.284;2023-05-20T05:20:07;95070.28;;;21.50;44.24
30819;BME280;17546;42.674;23.284;2023-05-20T05:22:33;95062.41;;;21.63;44.42
30819;BME280;17546;42.674;23.284;2023-05-20T05:25:02;95044.34;;;21.51;44.38
30819;BME280;17546;42.674;23.284;2023-05-20T05:27:27;95063.53;;;21.68;44.57
30819;BME280;17546;42.674;23.284;2023-05-20T05:29:54;95052.63;;;21.64;44.55
30819;BME280;17546;42.674;23.284;2023-05-20T05:32:19;95043.59;;;21.58;44.23
30819;BME280;17546;42.674;23.284;2023-05-20T05:34:44;95033.28;;;21.61;44.05
30819;BME280;17546;42.674;23.284;2023-05-20T05:37:10;95040.78;;;21.81;43.89
30819;BME280;17546;42.674;23.284;2023-05-20T05:39:36;95040.22;;;21.83;44.20
30819;BME280;17546;42.674;23.284;2023-05-20T05:42:02;95026.31;;;21.85;43.90
30819;BME280;17546;42.674;23.284;2023-05-20T05:44:28;95044.88;;;22.03;43.74
30819;BME280;17546;42.674;23.284;2023-05-20T05:46:53;95042.28;;;21.44;44.24
30819;BME280;17546;42.674;23.284;2023-05-20T05:49:19;95042.28;;;21.59;44.11
30819;BME280;17546;42.674;23.284;2023-05-20T05:51:44;95001.88;;;21.49;43.49
30819;BME280;17546;42.674;23.284;2023-05-20T05:54:10;95043.75;;;22.06;43.45
30819;BME280;17546;42.674;23.284;2023-05-20T05:56:35;95015.56;;;21.91;43.52
30819;BME280;17546;42.674;23.284;2023-05-20T05:59:00;95033.06;;;21.97;43.30
30819;BME280;17546;42.674;23.284;2023-05-20T06:01:26;95020.28;;;21.88;43.04
30819;BME280;17546;42.674;23.284;2023-05-20T06:03:52;94980.66;;;21.79;43.24
30819;BME280;17546;42.674;23.284;2023-05-20T06:06:17;95026.47;;;21.87;43.31
30819;BME280;17546;42.674;23.284;2023-05-20T06:08:43;95041.47;;;22.20;43.13
30819;BME280;17546;42.674;23.284;2023-05-20T06:11:08;95044.53;;;22.07;42.83
30819;BME280;17546;42.674;23.284;2023-05-20T06:13:34;95032.88;;;21.95;42.65
30819;BME280;17546;42.674;23.284;2023-05-20T06:16:00;95033.41;;;22.17;42.63
30819;BME280;17546;42.674;23.284;2023-05-20T06:18:25;95042.81;;;22.27;43.14
30819;BME280;17546;42.674;23.284;2023-05-20T06:20:56;95036.88;;;22.56;42.67
30819;BME280;17546;42.674;23.284;2023-05-20T06:23:21;95011.59;;;22.10;42.15
30819;BME280;17546;42.674;23.284;2023-05-20T06:25:47;95014.38;;;22.33;41.72
30819;BME280;17546;42.674;23.284;2023-05-20T06:28:13;95022.00;;;22.63;41.64
30819;BME280;17546;42.674;23.284;2023-05-20T06:30:38;95005.84;;;22.56;41.64
30819;BME280;17546;42.674;23.284;2023-05-20T06:33:03;95010.59;;;23.19;40.89
30819;BME280;17546;42.674;23.284;2023-05-20T06:35:29;95021.72;;;23.17;40.92
30819;BME280;17546;42.674;23.284;2023-05-20T06:37:54;95012.97;;;23.80;40.01
30819;BME280;17546;42.674;23.284;2023-05-20T06:40:20;95004.94;;;24.29;39.88
30819;BME280;17546;42.674;23.284;2023-05-20T06:42:45;94989.19;;;24.18;39.11
30819;BME280;17546;42.674;23.284;2023-05-20T06:45:11;95001.66;;;24.85;38.09
30819;BME280;17546;42.674;23.284;2023-05-20T06:47:38;94985.81;;;24.82;37.06
30819;BME280;17546;42.674;23.284;2023-05-20T06:50:04;94997.78;;;25.17;37.71
30819;BME280;17546;42.674;23.284;2023-05-20T06:52:30;94998.72;;;25.56;35.85
30819;BME280;17546;42.674;23.284;2023-05-20T06:54:55;95004.28;;;25.64;36.38
30819;BME280;17546;42.674;23.284;2023-05-20T06:57:21;94985.72;;;26.00;35.42
30819;BME280;17546;42.674;23.284;2023-05-20T06:59:46;94995.28;;;26.05;34.69
30819;BME280;17546;42.674;23.284;2023-05-20T07:02:12;95015.81;;;26.62;34.87
30819;BME280;17546;42.674;23.284;2023-05-20T07:04:37;95011.59;;;26.43;34.07
30819;BME280;17546;42.674;23.284;2023-05-20T07:07:03;95011.75;;;26.84;33.39
30819;BME280;17546;42.674;23.284;2023-05-20T07:09:28;95019.16;;;27.18;32.94
30819;BME280;17546;42.674;23.284;2023-05-20T07:11:54;95007.28;;;27.41;32.24
30819;BME280;17546;42.674;23.284;2023-05-20T07:14:19;95005.34;;;27.75;32.57
30819;BME280;17546;42.674;23.284;2023-05-20T07:16:44;94997.59;;;27.97;32.33
30819;BME280;17546;42.674;23.284;2023-05-20T07:19:10;94978.53;;;27.78;31.72
30819;BME280;17546;42.674;23.284;2023-05-20T07:21:35;95010.91;;;28.26;30.64
30819;BME280;17546;42.674;23.284;2023-05-20T07:24:01;94996.69;;;28.05;30.30
30819;BME280;17546;42.674;23.284;2023-05-20T07:26:26;94997.06;;;28.32;31.58
30819;BME280;17546;42.674;23.284;2023-05-20T07:28:52;94990.91;;;28.36;30.10
30819;BME280;17546;42.674;23.284;2023-05-20T07:31:17;94984.19;;;28.86;29.67
30819;BME280;17546;42.674;23.284;2023-05-20T07:33:42;94978.41;;;28.62;29.96
30819;BME280;17546;42.674;23.284;2023-05-20T07:36:10;95014.72;;;28.95;29.86
30819;BME280;17546;42.674;23.284;2023-05-20T07:38:35;94995.72;;;29.33;29.51
30819;BME280;17546;42.674;23.284;2023-05-20T07:41:01;95004.44;;;29.59;29.74
30819;BME280;17546;42.674;23.284;2023-05-20T07:43:27;95001.06;;;29.51;27.57
30819;BME280;17546;42.674;23.284;2023-05-20T07:45:52;95011.91;;;29.76;29.00
30819;BME280;17546;42.674;23.284;2023-05-20T07:48:18;94995.28;;;29.72;27.89
30819;BME280;17546;42.674;23.284;2023-05-20T07:50:43;95009.34;;;29.23;27.63
30819;BME280;17546;42.674;23.284;2023-05-20T07:53:09;94990.41;;;29.51;27.39
30819;BME280;17546;42.674;23.284;2023-05-20T07:55:34;95003.69;;;29.46;27.22
30819;BME280;17546;42.674;23.284;2023-05-20T07:58:01;94976.88;;;29.52;27.87
30819;BME280;17546;42.674;23.284;2023-05-20T08:00:27;95001.34;;;29.78;27.41
30819;BME280;17546;42.674;23.284;2023-05-20T08:02:52;95003.44;;;29.90;27.40
30819;BME280;17546;42.674;23.284;2023-05-20T08:05:18;95002.69;;;30.13;27.70
30819;BME280;17546;42.674;23.284;2023-05-20T08:07:43;94990.97;;;30.20;27.36
30819;BME280;17546;42.674;23.284;2023-05-20T08:10:09;94990.03;;;30.53;27.44
30819;BME280;17546;42.674;23.284;2023-05-20T08:12:35;94992.84;;;30.39;27.17
30819;BME280;17546;42.674;23.284;2023-05-20T08:15:00;94970.34;;;30.34;26.82
30819;BME280;17546;42.674;23.284;2023-05-20T08:17:26;94982.72;;;30.01;26.40
30819;BME280;17546;42.674;23.284;2023-05-20T08:19:51;94975.38;;;29.62;26.98
30819;BME280;17546;42.674;23.284;2023-05-20T08:22:17;94978.84;;;30.08;27.85
30819;BME280;17546;42.674;23.284;2023-05-20T08:24:42;94965.13;;;30.42;27.43
30819;BME280;17546;42.674;23.284;2023-05-20T08:27:07;94982.91;;;30.66;28.60
30819;BME280;17546;42.674;23.284;2023-05-20T08:29:33;94989.50;;;29.25;27.15
30819;BME280;17546;42.674;23.284;2023-05-20T08:31:58;94978.44;;;30.25;28.00
30819;BME280;17546;42.674;23.284;2023-05-20T08:34:24;94958.97;;;30.59;27.77
30819;BME280;17546;42.674;23.284;2023-05-20T08:36:49;94979.25;;;30.89;27.18
30819;BME280;17546;42.674;23.284;2023-05-20T08:39:15;94970.06;;;30.79;27.55
30819;BME280;17546;42.674;23.284;2023-05-20T08:41:40;94975.94;;;31.20;26.97
30819;BME280;17546;42.674;23.284;2023-05-20T08:44:07;94974.16;;;30.76;26.58
30819;BME280;17546;42.674;23.284;2023-05-20T08:46:34;94965.13;;;30.42;27.20
30819;BME280;17546;42.674;23.284;2023-05-20T08:49:01;94960.53;;;29.88;26.53
30819;BME280;17546;42.674;23.284;2023-05-20T08:51:26;94962.66;;;30.24;27.70
30819;BME280;17546;42.674;23.284;2023-05-20T08:53:52;94979.56;;;30.69;27.23
30819;BME280;17546;42.674;23.284;2023-05-20T08:56:18;94983.31;;;30.60;27.64
30819;BME280;17546;42.674;23.284;2023-05-20T08:58:44;94972.66;;;29.76;27.46
30819;BME280;17546;42.674;23.284;2023-05-20T09:01:11;94965.13;;;29.69;27.75
30819;BME280;17546;42.674;23.284;2023-05-20T09:03:36;94965.59;;;29.77;27.84
30819;BME280;17546;42.674;23.284;2023-05-20T09:06:06;94967.16;;;30.27;27.51
30819;BME280;17546;42.674;23.284;2023-05-20T09:08:32;94977.69;;;30.62;28.63
30819;BME280;17546;42.674;23.284;2023-05-20T09:10:58;94975.56;;;31.00;27.64
30819;BME280;17546;42.674;23.284;2023-05-20T09:13:27;94975.47;;;30.23;27.53
30819;BME280;17546;42.674;23.284;2023-05-20T09:15:54;94970.66;;;30.14;27.71
30819;BME280;17546;42.674;23.284;2023-05-20T09:18:19;94969.81;;;30.49;28.08
30819;BME280;17546;42.674;23.284;2023-05-20T09:20:49;94965.91;;;30.19;27.55
30819;BME280;17546;42.674;23.284;2023-05-20T09:23:18;94951.28;;;30.76;28.48
30819;BME280;17546;42.674;23.284;2023-05-20T09:25:48;94957.44;;;30.33;27.09
30819;BME280;17546;42.674;23.284;2023-05-20T09:28:14;94932.94;;;29.92;27.56
30819;BME280;17546;42.674;23.284;2023-05-20T09:30:39;94952.91;;;30.04;27.62
30819;BME280;17546;42.674;23.284;2023-05-20T09:33:05;94952.41;;;29.96;27.62
30819;BME280;17546;42.674;23.284;2023-05-20T09:35:34;94947.72;;;30.38;28.45
30819;BME280;17546;42.674;23.284;2023-05-20T09:38:05;94952.41;;;29.96;28.59
30819;BME280;17546;42.674;23.284;2023-05-20T09:40:32;94921.91;;;29.16;28.91
30819;BME280;17546;42.674;23.284;2023-05-20T09:43:02;94944.84;;;29.65;28.61
30819;BME280;17546;42.674;23.284;2023-05-20T09:45:28;94942.78;;;29.42;29.22
30819;BME280;17546;42.674;23.284;2023-05-20T09:47:54;94928.34;;;29.16;29.00
30819;BME280;17546;42.674;23.284;2023-05-20T09:50:22;94935.19;;;29.46;28.32
30819;BME280;17546;42.674;23.284;2023-05-20T09:52:48;94915.97;;;29.23;28.47
30819;BME280;17546;42.674;23.284;2023-05-20T09:55:16;94928.75;;;29.58;28.56
30819;BME280;17546;42.674;23.284;2023-05-20T09:57:42;94929.22;;;29.19;29.26
30819;BME280;17546;42.674;23.284;2023-05-20T10:00:08;94924.03;;;29.15;28.79
30819;BME280;17546;42.674;23.284;2023-05-20T10:02:35;94918.56;;;29.31;28.60
30819;BME280;17546;42.674;23.284;2023-05-20T10:05:05;94901.41;;;28.84;29.16
30819;BME280;17546;42.674;23.284;2023-05-20T10:07:49;94922.28;;;29.34;29.16
30819;BME280;17546;42.674;23.284;2023-05-20T10:10:45;94913.63;;;29.32;28.05
30819;BME280;17546;42.674;23.284;2023-05-20T10:21:41;94902.88;;;28.85;28.92
30819;BME280;17546;42.674;23.284;2023-05-20T10:24:08;94882.72;;;29.04;28.42
30819;BME280;17546;42.674;23.284;2023-05-20T10:26:39;94867.47;;;29.00;27.88
30819;BME280;17546;42.674;23.284;2023-05-20T10:29:23;94890.06;;;29.31;27.88
30819;BME280;17546;42.674;23.284;2023-05-20T10:31:50;94883.97;;;29.72;28.01
30819;BME280;17546;42.674;23.284;2023-05-20T10:34:17;94872.84;;;28.60;27.80
30819;BME280;17546;42.674;23.284;2023-05-20T10:39:18;94871.69;;;29.34;29.07
30819;BME280;17546;42.674;23.284;2023-05-20T10:41:43;94855.41;;;28.78;27.73
30819;BME280;17546;42.674;23.284;2023-05-20T10:44:08;94846.72;;;29.58;27.32
30819;BME280;17546;42.674;23.284;2023-05-20T10:46:34;94851.22;;;29.38;27.40
30819;BME280;17546;42.674;23.284;2023-05-20T10:49:03;94853.34;;;29.14;26.73
30819;BME280;17546;42.674;23.284;2023-05-20T10:51:29;94865.47;;;29.02;26.91
30819;BME280;17546;42.674;23.284;2023-05-20T10:53:57;94853.09;;;28.86;26.68
30819;BME280;17546;42.674;23.284;2023-05-20T10:56:24;94852.22;;;29.42;27.21
30819;BME280;17546;42.674;23.284;2023-05-20T10:58:54;94843.88;;;29.70;27.06
30819;BME280;17546;42.674;23.284;2023-05-20T11:01:24;94844.28;;;29.41;26.42
30819;BME280;17546;42.674;23.284;2023-05-20T11:03:51;94829.53;;;28.97;26.35
30819;BME280;17546;42.674;23.284;2023-05-20T11:06:18;94858.66;;;28.39;27.41
30819;BME280;17546;42.674;23.284;2023-05-20T11:08:44;94856.78;;;28.89;27.29
30819;BME280;17546;42.674;23.284;2023-05-20T11:11:11;94834.56;;;28.18;27.67
30819;BME280;17546;42.674;23.284;2023-05-20T11:13:37;94839.78;;;28.22;27.63
30819;BME280;17546;42.674;23.284;2023-05-20T11:16:03;94832.88;;;28.37;27.92
30819;BME280;17546;42.674;23.284;2023-05-20T11:18:29;94845.88;;;28.73;27.37
30819;BME280;17546;42.674;23.284;2023-05-20T11:20:58;94831.16;;;28.32;27.58
30819;BME280;17546;42.674;23.284;2023-05-20T11:23:28;94835.34;;;28.31;27.79
30819;BME280;17546;42.674;23.284;2023-05-20T11:25:55;94807.16;;;27.80;28.93
30819;BME280;17546;42.674;23.284;2023-05-20T11:28:21;94822.19;;;28.14;28.54
30819;BME280;17546;42.674;23.284;2023-05-20T11:30:47;94802.31;;;27.71;29.32
30819;BME280;17546;42.674;23.284;2023-05-20T11:33:15;94807.25;;;27.92;29.77
30819;BME280;17546;42.674;23.284;2023-05-20T11:35:53;94809.25;;;28.01;28.87
30819;BME280;17546;42.674;23.284;2023-05-20T11:38:19;94785.50;;;27.96;28.54
30819;BME280;17546;42.674;23.284;2023-05-20T11:40:49;94781.88;;;28.41;27.82
30819;BME280;17546;42.674;23.284;2023-05-20T11:43:15;94790.31;;;27.72;28.77
30819;BME280;17546;42.674;23.284;2023-05-20T11:45:44;94803.00;;;27.38;28.78
30819;BME280;17546;42.674;23.284;2023-05-20T11:48:10;94817.34;;;27.61;28.74
30819;BME280;17546;42.674;23.284;2023-05-20T11:50:44;94797.75;;;27.77;29.06
30819;BME280;17546;42.674;23.284;2023-05-20T11:53:16;94791.78;;;27.73;29.72
30819;BME280;17546;42.674;23.284;2023-05-20T11:55:51;94777.97;;;27.79;29.28
30819;BME280;17546;42.674;23.284;2023-05-20T11:58:22;94800.25;;;28.61;28.94
30819;BME280;17546;42.674;23.284;2023-05-20T12:00:47;94782.00;;;28.31;28.12
30819;BME280;17546;42.674;23.284;2023-05-20T12:03:13;94783.47;;;28.44;28.11
30819;BME280;17546;42.674;23.284;2023-05-20T12:05:39;94783.91;;;28.62;28.48
30819;BME280;17546;42.674;23.284;2023-05-20T12:08:05;94770.22;;;28.25;28.68
30819;BME280;17546;42.674;23.284;2023-05-20T12:10:31;94774.66;;;28.16;29.44
30819;BME280;17546;42.674;23.284;2023-05-20T12:12:57;94758.22;;;28.38;28.43
30819;BME280;17546;42.674;23.284;2023-05-20T12:15:22;94782.66;;;28.77;28.88
30819;BME280;17546;42.674;23.284;2023-05-20T12:17:50;94765.91;;;28.36;28.88
30819;BME280;17546;42.674;23.284;2023-05-20T12:20:19;94766.69;;;28.72;28.97
30819;BME280;17546;42.674;23.284;2023-05-20T12:22:45;94766.81;;;28.05;29.15
30819;BME280;17546;42.674;23.284;2023-05-20T12:25:16;94779.69;;;28.51;29.25
30819;BME280;17546;42.674;23.284;2023-05-20T12:27:42;94784.16;;;28.90;29.67
30819;BME280;17546;42.674;23.284;2023-05-20T12:30:14;94781.56;;;28.13;29.09
30819;BME280;17546;42.674;23.284;2023-05-20T12:32:40;94779.38;;;28.23;29.22
30819;BME280;17546;42.674;23.284;2023-05-20T12:35:06;94813.28;;;28.19;29.00
30819;BME280;17546;42.674;23.284;2023-05-20T12:37:31;94830.34;;;28.19;29.68
30819;BME280;17546;42.674;23.284;2023-05-20T12:39:58;94831.16;;;27.98;29.56
30819;BME280;17546;42.674;23.284;2023-05-20T12:42:23;94797.91;;;27.58;29.65
30819;BME280;17546;42.674;23.284;2023-05-20T12:44:48;94826.97;;;27.04;30.57
30819;BME280;17546;42.674;23.284;2023-05-20T12:47:14;94818.72;;;27.08;30.26
30819;BME280;17546;42.674;23.284;2023-05-20T12:49:39;94818.91;;;27.31;30.36
30819;BME280;17546;42.674;23.284;2023-05-20T12:52:05;94813.97;;;27.32;30.46
30819;BME280;17546;42.674;23.284;2023-05-20T12:54:30;94832.81;;;27.58;30.73
30819;BME280;17546;42.674;23.284;2023-05-20T12:56:57;94814.44;;;27.50;30.78